Pagrindinis puslapis
METAR-TAF:

METAR-TAF

Oro uostai :

Grenchenas, Šveicarija

platuma: 47-10-53N, ilguma: 007-24-59E, Aukštis: 430 m

Dabartinis oras

Ataskaita buvo paskelbta 21 minutes, ne 20:20 UTC
Vėjas 2 kt iš Vakarų
Temperatūra 7°C
Drėgmė 93%
Slėgis 1014 hPa
Matomumas 10 km arba daugiau

METAR: LSZG 272020Z AUTO 27002KT 9999 NSC 07/06 Q1014

Laikas: 21:41 (20:41 UTC)

Prognozė

Ataskaita buvo paskelbta 6 valandos ir 16 minutes, ne 14:25 UTC
Prognozė galioja nuo 27 metu 15 UTC su 27 metu 24 UTC
Vėjas 8 kt iš Vakarų/Pietvakarių
Matomumas 10 km arba daugiau
Išsisklaidę debesys ne aukštis 4000 ft
Laikinai
nuo 27 metu 15 UTC su 27 metu 18 UTC
Matomumas 10 km arba daugiau
nėra debesų žemiau 1500 m ir nėra kamuolinių lietaus debesų

TAF: LSZG 271425Z 2715/2724 25008KT 9999 SCT040 TEMPO 2715/2718 CAVOK

Orai ataskaitas ir orų prognozės (METAR, TAF).

turimą stotys yra geltonos ir raudonos taškus žemėlapyje.

Perkelti pele per norėdami pamatyti stoties vardą.

Tada spustelėkite, norėdami matyti oro stebėjimo ir prognozės.

Norėdami pakeisti žemėlapį: spustelėkite ant žalios mygtukų su juodo kryžiaus žemyn,; žalią mygtuką su brūkšneliu, jei norite nutolinti; arba žalių rodyklių gretimoms žemėlapius.


METAR-TAF: